createdAt,value
2022-10-26T00:00:48.377Z,74.05
2022-10-26T00:03:54.057Z,74.54
2022-10-26T00:06:59.684Z,75.04
2022-10-26T00:10:05.426Z,74.65
2022-10-26T00:13:16.002Z,74.12
2022-10-26T00:16:32.189Z,74.18
2022-10-26T00:19:38.386Z,73.88
2022-10-26T00:22:44.668Z,73.64
2022-10-26T00:25:58.420Z,73.52
2022-10-26T00:29:03.950Z,72.99
2022-10-26T00:32:12.199Z,72.65
2022-10-26T00:35:23.275Z,72.60
2022-10-26T00:38:37.881Z,73.33
2022-10-26T00:41:43.842Z,73.00
2022-10-26T00:45:07.448Z,72.49
2022-10-26T00:48:26.344Z,75.07
2022-10-26T00:51:39.264Z,78.88
2022-10-26T00:54:49.172Z,80.05
2022-10-26T00:57:57.744Z,79.75
2022-10-26T01:01:03.491Z,79.04
2022-10-26T01:04:11.896Z,77.84
2022-10-26T01:07:19.018Z,77.66
2022-10-26T01:10:25.472Z,76.91
2022-10-26T01:13:37.097Z,77.25
2022-10-26T01:17:04.572Z,77.41
2022-10-26T01:20:56.747Z,77.03
2022-10-26T01:24:51.549Z,76.88
2022-10-26T01:27:57.981Z,76.85
2022-10-26T01:31:14.942Z,76.08
2022-10-26T01:34:32.546Z,75.61
2022-10-26T01:37:49.319Z,75.35
2022-10-26T01:41:06.958Z,75.03
2022-10-26T01:44:22.623Z,75.23
2022-10-26T01:47:37.276Z,75.25
2022-10-26T01:50:46.989Z,75.59
2022-10-26T01:53:52.710Z,75.93
2022-10-26T01:57:07.053Z,75.75
2022-10-26T02:00:16.922Z,75.21
2022-10-26T02:03:45.989Z,75.97
2022-10-26T02:07:06.408Z,75.88
2022-10-26T02:10:34.196Z,76.42
2022-10-26T02:13:56.276Z,76.20
2022-10-26T02:17:14.547Z,76.24
2022-10-26T02:20:32.022Z,76.12
2022-10-26T02:23:44.511Z,76.55
2022-10-26T02:26:56.856Z,75.97
2022-10-26T02:30:07.862Z,75.91
2022-10-26T02:33:18.236Z,75.99
2022-10-26T02:36:33.769Z,75.38
2022-10-26T02:39:44.712Z,75.11
2022-10-26T02:42:55.100Z,74.41
2022-10-26T02:46:24.446Z,74.78
2022-10-26T02:49:37.499Z,74.62
2022-10-26T02:53:02.414Z,74.49
2022-10-26T02:56:19.755Z,75.02
2022-10-26T02:59:38.285Z,74.84
2022-10-26T03:02:48.631Z,75.00
2022-10-26T03:05:54.871Z,75.52
2022-10-26T03:09:04.913Z,75.01
2022-10-26T03:12:10.670Z,75.45
2022-10-26T03:15:16.840Z,75.32
2022-10-26T03:18:22.455Z,76.08
2022-10-26T03:21:28.956Z,76.16
2022-10-26T03:24:37.223Z,76.95
2022-10-26T03:27:42.929Z,77.11
2022-10-26T03:30:48.512Z,77.47
2022-10-26T03:33:54.240Z,77.97
2022-10-26T03:36:59.870Z,77.49
2022-10-26T03:40:09.863Z,76.67
2022-10-26T03:43:15.545Z,76.55
2022-10-26T03:46:21.236Z,76.81
2022-10-26T03:49:27.012Z,76.56
2022-10-26T03:52:32.549Z,76.62
2022-10-26T03:55:41.252Z,76.48
2022-10-26T03:58:46.899Z,77.71
2022-10-26T04:01:55.381Z,79.09
2022-10-26T04:05:03.462Z,80.03
2022-10-26T04:08:09.257Z,80.50
2022-10-26T04:11:17.505Z,80.87
2022-10-26T04:14:23.140Z,81.46
2022-10-26T04:17:28.953Z,82.34
2022-10-26T04:20:39.246Z,81.48
2022-10-26T04:23:46.194Z,80.63
2022-10-26T04:26:54.380Z,79.79
2022-10-26T04:30:06.488Z,79.13
2022-10-26T04:33:18.103Z,78.32
2022-10-26T04:36:23.724Z,78.39
2022-10-26T04:39:29.323Z,78.50
2022-10-26T04:42:44.512Z,78.16
2022-10-26T04:45:50.181Z,77.78
2022-10-26T04:48:58.220Z,77.22
2022-10-26T04:52:03.878Z,76.68
2022-10-26T04:55:11.494Z,76.87
2022-10-26T04:58:25.022Z,78.25
2022-10-26T05:01:30.800Z,77.94
2022-10-26T05:04:39.682Z,78.55
2022-10-26T05:07:46.086Z,78.56
2022-10-26T05:10:52.871Z,77.81
2022-10-26T05:14:02.957Z,78.58
2022-10-26T05:17:08.742Z,79.20
2022-10-26T05:20:15.461Z,80.25
2022-10-26T05:23:21.300Z,81.20
2022-10-26T05:26:27.900Z,80.37
2022-10-26T05:29:36.200Z,79.45
2022-10-26T05:32:41.916Z,79.00
2022-10-26T05:35:47.829Z,79.82
2022-10-26T05:38:53.572Z,80.14
2022-10-26T05:41:59.874Z,80.55
2022-10-26T05:45:09.616Z,80.23
2022-10-26T05:48:16.322Z,80.94
2022-10-26T05:51:21.968Z,82.10
2022-10-26T05:54:27.582Z,82.76
2022-10-26T05:57:34.251Z,82.44
2022-10-26T06:01:03.383Z,81.39
2022-10-26T06:04:36.267Z,80.25
2022-10-26T06:07:42.895Z,80.49
2022-10-26T06:10:51.996Z,80.59
2022-10-26T06:14:00.515Z,80.65
2022-10-26T06:17:43.035Z,80.92
2022-10-26T06:21:13.563Z,80.37
2022-10-26T06:24:37.226Z,78.75
2022-10-26T06:27:59.740Z,78.85
2022-10-26T06:31:06.282Z,78.13
2022-10-26T06:34:28.958Z,77.11
2022-10-26T06:37:36.542Z,75.27
2022-10-26T06:40:46.969Z,74.25
2022-10-26T06:43:59.663Z,72.80
2022-10-26T06:47:18.631Z,70.10
2022-10-26T06:50:42.618Z,68.15
2022-10-26T06:54:04.883Z,65.38
2022-10-26T06:57:15.936Z,63.93
2022-10-26T07:00:29.912Z,62.29
2022-10-26T07:03:35.546Z,60.13
2022-10-26T07:06:46.254Z,59.71
2022-10-26T07:09:53.406Z,58.08
2022-10-26T07:12:59.082Z,58.21
2022-10-26T07:16:11.492Z,55.46
2022-10-26T07:19:21.861Z,55.27
2022-10-26T07:22:30.190Z,55.25
2022-10-26T07:25:40.665Z,54.25
2022-10-26T07:28:49.280Z,53.10
2022-10-26T07:31:56.437Z,53.53
2022-10-26T07:35:14.576Z,53.23
2022-10-26T07:38:23.099Z,52.26
2022-10-26T07:41:31.859Z,51.71
2022-10-26T07:44:40.502Z,49.56
2022-10-26T07:47:46.466Z,49.65
2022-10-26T07:50:52.334Z,47.91
2022-10-26T07:54:00.585Z,46.36
2022-10-26T07:57:06.465Z,46.59
2022-10-26T08:00:14.533Z,46.44
2022-10-26T08:03:20.605Z,45.91
2022-10-26T08:06:27.546Z,44.07
2022-10-26T08:09:36.024Z,43.48
2022-10-26T08:12:42.051Z,43.74
2022-10-26T08:15:48.662Z,43.63
2022-10-26T08:18:55.306Z,47.02
2022-10-26T08:22:01.094Z,47.71
2022-10-26T08:25:23.910Z,47.67
2022-10-26T08:28:30.026Z,47.51
2022-10-26T08:31:35.617Z,45.29
2022-10-26T08:34:48.082Z,45.11
2022-10-26T08:37:55.264Z,43.31
2022-10-26T08:41:18.494Z,43.75
2022-10-26T08:44:42.679Z,43.68
2022-10-26T08:47:56.899Z,42.65
2022-10-26T08:51:11.783Z,42.57
2022-10-26T08:54:41.308Z,40.80
2022-10-26T08:57:54.644Z,43.00
2022-10-26T09:01:06.447Z,41.42
2022-10-26T09:04:23.057Z,40.85
2022-10-26T09:07:57.364Z,40.76
2022-10-26T09:11:31.259Z,40.42
2022-10-26T09:15:05.477Z,39.19
2022-10-26T09:18:41.634Z,38.87
2022-10-26T09:22:04.291Z,38.26
2022-10-26T09:25:23.154Z,39.93
2022-10-26T09:28:35.953Z,37.65
2022-10-26T09:31:51.080Z,37.55
2022-10-26T09:35:15.369Z,38.63
2022-10-26T09:38:32.533Z,36.97
2022-10-26T09:41:47.220Z,36.70
2022-10-26T09:45:01.724Z,35.31
2022-10-26T09:48:25.847Z,34.03
2022-10-26T09:51:31.601Z,35.98
2022-10-26T09:54:37.711Z,34.33
2022-10-26T09:57:48.659Z,33.74
2022-10-26T10:00:56.987Z,33.62
2022-10-26T10:04:23.227Z,35.85
2022-10-26T10:07:29.443Z,35.78
2022-10-26T10:10:35.198Z,35.19
2022-10-26T10:13:44.605Z,34.73
2022-10-26T10:16:59.065Z,35.46
2022-10-26T10:20:22.695Z,34.51
2022-10-26T10:23:35.590Z,34.66
2022-10-26T10:27:01.479Z,35.88
2022-10-26T10:30:27.068Z,33.89
2022-10-26T10:33:41.725Z,33.15
2022-10-26T10:36:49.917Z,33.77
2022-10-26T10:40:02.481Z,35.05
2022-10-26T10:43:17.431Z,34.53
2022-10-26T10:46:29.511Z,33.76
2022-10-26T10:49:37.231Z,33.57
2022-10-26T10:52:46.422Z,35.01
2022-10-26T10:56:11.584Z,36.60
2022-10-26T11:00:04.395Z,35.24
2022-10-26T11:03:49.992Z,35.64
2022-10-26T11:07:02.545Z,34.78
2022-10-26T11:10:22.670Z,34.53
2022-10-26T11:13:38.837Z,34.38
2022-10-26T11:16:52.043Z,36.07
2022-10-26T11:20:12.487Z,35.54
2022-10-26T11:23:33.443Z,35.40
2022-10-26T11:26:52.799Z,36.14
2022-10-26T11:30:08.949Z,36.49
2022-10-26T11:33:26.335Z,34.83
2022-10-26T11:36:39.063Z,36.19
2022-10-26T11:39:56.279Z,35.75
2022-10-26T11:43:18.826Z,34.99
2022-10-26T11:46:37.373Z,34.53
2022-10-26T11:49:56.875Z,33.61
2022-10-26T11:53:15.677Z,34.88
2022-10-26T11:56:41.140Z,35.85
2022-10-26T11:59:57.537Z,33.91
2022-10-26T12:03:14.915Z,33.64
2022-10-26T12:06:28.579Z,34.15
2022-10-26T12:09:41.912Z,34.14
2022-10-26T12:13:07.769Z,34.84
2022-10-26T12:16:36.153Z,33.58
2022-10-26T12:19:53.531Z,34.03
2022-10-26T12:23:00.087Z,34.05
2022-10-26T12:26:53.382Z,32.32
2022-10-26T12:30:36.937Z,32.50
2022-10-26T12:33:55.431Z,33.51
2022-10-26T12:37:32.838Z,34.57
2022-10-26T12:40:46.163Z,35.07
2022-10-26T12:43:52.291Z,33.87
2022-10-26T12:46:57.892Z,35.23
2022-10-26T12:50:26.729Z,37.61
2022-10-26T12:53:32.864Z,40.32
2022-10-26T12:56:54.057Z,41.84
2022-10-26T13:00:08.160Z,42.68
2022-10-26T13:03:35.687Z,43.42
2022-10-26T13:07:09.436Z,41.77
2022-10-26T13:10:27.603Z,41.60
2022-10-26T13:13:37.034Z,41.04
2022-10-26T13:16:50.081Z,41.00
2022-10-26T13:20:03.538Z,41.67
2022-10-26T13:23:29.911Z,41.26
2022-10-26T13:27:11.175Z,41.66
2022-10-26T13:30:53.799Z,42.27
2022-10-26T13:34:05.462Z,43.46
2022-10-26T13:37:27.429Z,43.45
2022-10-26T13:40:39.623Z,44.47
2022-10-26T13:43:49.170Z,45.37
2022-10-26T13:47:04.881Z,45.51
2022-10-26T13:50:22.595Z,45.36
2022-10-26T13:53:43.026Z,46.02
2022-10-26T13:57:08.724Z,46.52
2022-10-26T14:00:24.222Z,45.23
2022-10-26T14:03:30.383Z,45.36
2022-10-26T14:06:43.232Z,45.59
2022-10-26T14:09:57.907Z,45.85
2022-10-26T14:13:15.185Z,46.12
2022-10-26T14:16:31.537Z,46.48
2022-10-26T14:19:42.759Z,47.04
2022-10-26T14:22:51.376Z,46.98
2022-10-26T14:25:59.418Z,46.83
2022-10-26T14:29:17.718Z,46.79
2022-10-26T14:32:25.465Z,46.44
2022-10-26T14:35:42.233Z,47.38
2022-10-26T14:38:59.823Z,47.81
2022-10-26T14:42:29.220Z,47.76
2022-10-26T14:45:48.431Z,48.52
2022-10-26T14:48:59.614Z,47.91
2022-10-26T14:52:10.230Z,48.61
2022-10-26T14:55:19.974Z,48.37
2022-10-26T14:58:32.299Z,48.66
2022-10-26T15:01:56.302Z,48.93
2022-10-26T15:05:05.321Z,49.06
2022-10-26T15:08:57.057Z,49.27
2022-10-26T15:12:05.926Z,49.43
2022-10-26T15:15:24.223Z,49.85
2022-10-26T15:18:40.094Z,50.12
2022-10-26T15:21:51.596Z,50.68
2022-10-26T15:25:06.640Z,50.51
2022-10-26T15:28:14.693Z,51.13
2022-10-26T15:31:36.189Z,51.49
2022-10-26T15:34:44.495Z,52.14
2022-10-26T15:37:51.146Z,52.56
2022-10-26T15:40:59.157Z,53.27
2022-10-26T15:44:10.223Z,53.88
2022-10-26T15:47:24.803Z,54.15
2022-10-26T15:50:35.586Z,55.06
2022-10-26T15:53:43.787Z,56.27
2022-10-26T15:56:49.479Z,57.90
2022-10-26T15:59:55.141Z,58.61
2022-10-26T16:03:00.828Z,59.57
2022-10-26T16:06:21.628Z,60.21
2022-10-26T16:09:27.202Z,60.06
2022-10-26T16:12:39.571Z,60.19
2022-10-26T16:15:46.550Z,60.11
2022-10-26T16:19:18.420Z,60.72
2022-10-26T16:22:27.658Z,61.11
2022-10-26T16:25:33.219Z,61.36
2022-10-26T16:28:40.169Z,62.70
2022-10-26T16:31:46.154Z,62.89
2022-10-26T16:34:51.803Z,62.40
2022-10-26T16:38:00.071Z,62.54
2022-10-26T16:41:14.052Z,62.94
2022-10-26T16:44:19.781Z,63.15
2022-10-26T16:47:25.538Z,63.40
2022-10-26T16:50:35.503Z,63.36
2022-10-26T16:53:49.221Z,63.46
2022-10-26T16:56:55.999Z,64.37
2022-10-26T17:00:01.778Z,64.34
2022-10-26T17:03:07.921Z,64.07
2022-10-26T17:06:14.597Z,64.02
2022-10-26T17:09:28.869Z,64.64
2022-10-26T17:12:43.254Z,64.77
2022-10-26T17:15:49.394Z,64.40
2022-10-26T17:18:56.865Z,64.77
2022-10-26T17:22:08.979Z,64.45
2022-10-26T17:25:19.431Z,65.03
2022-10-26T17:28:25.181Z,64.71
2022-10-26T17:31:31.205Z,63.88
2022-10-26T17:34:37.259Z,64.24
2022-10-26T17:37:42.946Z,64.66
2022-10-26T17:40:53.917Z,64.54
2022-10-26T17:43:59.896Z,64.64
2022-10-26T17:47:05.757Z,64.70
2022-10-26T17:50:13.193Z,64.53
2022-10-26T17:53:19.640Z,65.38
2022-10-26T17:56:30.746Z,65.33
2022-10-26T17:59:36.583Z,65.04
2022-10-26T18:02:42.613Z,64.72
2022-10-26T18:05:56.275Z,64.48
2022-10-26T18:09:02.300Z,64.11
2022-10-26T18:12:10.943Z,64.08
2022-10-26T18:15:17.043Z,64.11
2022-10-26T18:18:22.830Z,64.73
2022-10-26T18:21:29.109Z,64.79
2022-10-26T18:24:34.843Z,64.68
2022-10-26T18:27:43.135Z,65.00
2022-10-26T18:30:49.015Z,64.37
2022-10-26T18:33:59.272Z,64.50
2022-10-26T18:37:04.952Z,65.24
2022-10-26T18:40:12.845Z,65.25
2022-10-26T18:43:21.183Z,65.63
2022-10-26T18:46:30.234Z,65.76
2022-10-26T18:49:36.085Z,65.75
2022-10-26T18:52:41.853Z,65.22
2022-10-26T18:55:47.596Z,65.50
2022-10-26T18:59:00.562Z,65.82
2022-10-26T19:05:32.083Z,66.78
2022-10-26T19:08:37.756Z,66.16
2022-10-26T19:11:44.524Z,66.10
2022-10-26T19:14:52.718Z,66.47
2022-10-26T19:17:59.914Z,67.49
2022-10-26T19:21:10.079Z,67.24
2022-10-26T19:24:19.512Z,67.79
2022-10-26T19:27:25.311Z,68.96
2022-10-26T19:30:33.508Z,69.81
2022-10-26T19:33:39.777Z,70.00
2022-10-26T19:36:47.388Z,69.58
2022-10-26T19:39:53.265Z,69.39
2022-10-26T19:42:58.824Z,68.99
2022-10-26T19:46:16.744Z,69.60
2022-10-26T19:49:25.021Z,69.99
2022-10-26T19:52:30.594Z,70.32
2022-10-26T19:55:36.343Z,70.79
2022-10-26T19:58:43.507Z,71.63
2022-10-26T20:01:53.929Z,71.38
2022-10-26T20:04:59.659Z,72.23
2022-10-26T20:08:05.786Z,72.25
2022-10-26T20:11:15.762Z,72.03
2022-10-26T20:14:21.764Z,72.63
2022-10-26T20:17:29.982Z,72.26
2022-10-26T20:20:38.295Z,72.70
2022-10-26T20:23:46.061Z,72.74
2022-10-26T20:26:51.785Z,73.89
2022-10-26T20:29:57.400Z,73.81
2022-10-26T20:33:09.729Z,74.33
2022-10-26T20:36:15.271Z,74.72
2022-10-26T20:39:29.083Z,74.78
2022-10-26T20:42:35.945Z,75.27
2022-10-26T20:45:42.515Z,75.17
2022-10-26T20:48:52.164Z,75.50
2022-10-26T20:52:20.583Z,75.66
2022-10-26T20:55:37.874Z,75.49
2022-10-26T20:58:48.659Z,75.19
2022-10-26T21:01:54.513Z,75.78
2022-10-26T21:05:03.027Z,75.65
2022-10-26T21:08:08.633Z,75.65
2022-10-26T21:11:14.339Z,75.79
2022-10-26T21:14:19.867Z,75.78
2022-10-26T21:17:26.136Z,75.76
2022-10-26T21:20:34.424Z,75.79
2022-10-26T21:23:43.399Z,76.41
2022-10-26T21:26:49.058Z,76.41
2022-10-26T21:29:54.827Z,77.32
2022-10-26T21:33:00.436Z,76.82
2022-10-26T21:36:12.472Z,77.11
2022-10-26T21:39:18.385Z,76.64
2022-10-26T21:42:24.101Z,77.30
2022-10-26T21:45:29.745Z,77.16
2022-10-26T21:48:37.656Z,77.81
2022-10-26T21:51:59.591Z,78.08
2022-10-26T21:55:09.995Z,78.28
2022-10-26T21:58:21.483Z,78.16
2022-10-26T22:01:27.177Z,77.99
2022-10-26T22:04:39.963Z,78.11
2022-10-26T22:07:53.223Z,78.92
2022-10-26T22:11:10.572Z,79.30
2022-10-26T22:14:23.812Z,78.85
2022-10-26T22:17:29.434Z,79.22
2022-10-26T22:20:35.057Z,79.16
2022-10-26T22:23:46.141Z,78.99
2022-10-26T22:26:52.061Z,79.76
2022-10-26T22:29:57.893Z,79.53
2022-10-26T22:33:03.500Z,79.83
2022-10-26T22:36:12.037Z,79.75
2022-10-26T22:39:20.705Z,80.06
2022-10-26T22:42:26.562Z,80.51
2022-10-26T22:45:32.322Z,80.59
2022-10-26T22:48:38.840Z,80.84
2022-10-26T22:51:44.510Z,80.47
2022-10-26T22:54:52.758Z,80.97
2022-10-26T22:57:58.414Z,80.31
2022-10-26T23:01:08.860Z,81.34
2022-10-26T23:04:15.729Z,80.07
2022-10-26T23:07:27.989Z,80.57
2022-10-26T23:10:39.517Z,80.45
2022-10-26T23:13:45.880Z,80.65
2022-10-26T23:16:51.542Z,80.44
2022-10-26T23:20:17.531Z,80.56
2022-10-26T23:23:23.106Z,80.49
2022-10-26T23:26:31.337Z,80.15
2022-10-26T23:29:49.077Z,80.86
2022-10-26T23:32:54.867Z,80.75
2022-10-26T23:36:08.010Z,80.79
2022-10-26T23:39:14.512Z,80.95
2022-10-26T23:42:22.873Z,81.20
2022-10-26T23:45:28.759Z,81.54
2022-10-26T23:48:34.645Z,81.56
2022-10-26T23:51:40.260Z,81.25
2022-10-26T23:54:45.922Z,81.55
2022-10-26T23:57:54.196Z,82.08
